createdAt,value
2018-11-21T00:00:02.018Z,38.97
2018-11-21T00:02:30.455Z,39.13
2018-11-21T00:04:58.909Z,38.93
2018-11-21T00:07:27.344Z,41.60
2018-11-21T00:09:55.880Z,37.87
2018-11-21T00:12:24.311Z,39.83
2018-11-21T00:14:52.752Z,40.17
2018-11-21T00:17:21.190Z,42.30
2018-11-21T00:19:49.594Z,37.83
2018-11-21T00:22:18.073Z,42.57
2018-11-21T00:24:46.497Z,37.67
2018-11-21T00:27:14.925Z,36.93
2018-11-21T00:29:43.355Z,41.07
2018-11-21T00:32:21.213Z,39.07
2018-11-21T00:34:50.252Z,36.97
2018-11-21T00:37:19.553Z,40.17
2018-11-21T00:39:47.964Z,42.07
2018-11-21T00:42:16.408Z,39.63
2018-11-21T00:44:44.852Z,38.80
2018-11-21T00:47:13.370Z,41.67
2018-11-21T00:49:41.836Z,39.67
2018-11-21T00:52:10.545Z,40.33
2018-11-21T00:54:38.983Z,39.70
2018-11-21T00:57:07.782Z,39.30
2018-11-21T00:59:36.228Z,39.03
2018-11-21T01:02:04.748Z,42.57
2018-11-21T01:04:33.181Z,40.37
2018-11-21T01:07:01.707Z,41.83
2018-11-21T01:09:31.828Z,40.77
2018-11-21T01:12:00.247Z,42.10
2018-11-21T01:14:28.708Z,39.17
2018-11-21T01:16:57.128Z,40.00
2018-11-21T01:19:25.575Z,40.10
2018-11-21T01:21:54.016Z,37.77
2018-11-21T01:24:22.438Z,43.63
2018-11-21T01:26:50.892Z,39.53
2018-11-21T01:29:19.312Z,40.10
2018-11-21T01:31:47.739Z,42.73
2018-11-21T01:34:16.166Z,42.30
2018-11-21T01:36:44.605Z,40.33
2018-11-21T01:39:13.385Z,38.20
2018-11-21T01:41:41.807Z,39.37
2018-11-21T01:44:10.227Z,38.83
2018-11-21T01:46:38.676Z,42.00
2018-11-21T01:49:07.079Z,37.57
2018-11-21T01:51:35.578Z,41.47
2018-11-21T01:54:03.985Z,43.00
2018-11-21T01:56:32.422Z,37.53
2018-11-21T01:59:00.875Z,38.93
2018-11-21T02:01:29.306Z,38.60
2018-11-21T02:03:57.709Z,42.57
2018-11-21T02:06:26.123Z,41.03
2018-11-21T02:08:54.556Z,38.93
2018-11-21T02:11:22.973Z,41.07
2018-11-21T02:13:51.414Z,41.77
2018-11-21T02:16:19.840Z,39.77
2018-11-21T02:18:48.276Z,36.40
2018-11-21T02:21:16.680Z,39.90
2018-11-21T02:23:45.108Z,39.03
2018-11-21T02:26:13.506Z,38.50
2018-11-21T02:28:42.148Z,39.47
2018-11-21T02:31:10.688Z,39.20
2018-11-21T02:33:39.055Z,41.20
2018-11-21T02:36:07.478Z,41.47
2018-11-21T02:38:35.902Z,39.93
2018-11-21T02:41:04.325Z,38.60
2018-11-21T02:43:32.746Z,37.90
2018-11-21T02:46:01.163Z,33.77
2018-11-21T02:48:29.571Z,36.90
2018-11-21T02:50:58.026Z,36.90
2018-11-21T02:53:26.488Z,33.50
2018-11-21T02:55:54.923Z,36.50
2018-11-21T02:58:23.574Z,35.97
2018-11-21T03:00:52.004Z,37.40
2018-11-21T03:03:20.421Z,32.73
2018-11-21T03:05:48.871Z,37.53
2018-11-21T03:08:17.281Z,35.10
2018-11-21T03:10:45.715Z,35.30
2018-11-21T03:13:14.136Z,36.53
2018-11-21T03:15:42.561Z,37.17
2018-11-21T03:18:10.969Z,36.00
2018-11-21T03:20:39.395Z,36.40
2018-11-21T03:23:07.792Z,34.37
2018-11-21T03:25:36.215Z,41.07
2018-11-21T03:28:04.728Z,36.63
2018-11-21T03:30:33.257Z,38.23
2018-11-21T03:33:01.628Z,37.23
2018-11-21T03:35:30.088Z,34.27
2018-11-21T03:37:58.515Z,35.57
2018-11-21T03:40:26.906Z,37.80
2018-11-21T03:42:55.331Z,40.70
2018-11-21T03:45:23.747Z,41.17
2018-11-21T03:47:52.575Z,37.20
2018-11-21T03:50:21.040Z,40.33
2018-11-21T03:52:49.465Z,36.70
2018-11-21T03:55:17.869Z,38.63
2018-11-21T03:57:46.342Z,41.70
2018-11-21T04:00:14.752Z,38.60
2018-11-21T04:02:43.211Z,43.43
2018-11-21T04:05:11.713Z,42.07
2018-11-21T04:07:40.141Z,40.73
2018-11-21T04:10:10.536Z,39.93
2018-11-21T04:12:39.112Z,38.80
2018-11-21T04:15:09.162Z,37.70
2018-11-21T04:17:37.567Z,42.00
2018-11-21T04:20:06.394Z,40.20
2018-11-21T04:22:34.823Z,37.37
2018-11-21T04:25:03.252Z,39.93
2018-11-21T04:27:31.679Z,44.30
2018-11-21T04:30:00.144Z,40.77
2018-11-21T04:32:28.563Z,40.57
2018-11-21T04:34:56.988Z,39.73
2018-11-21T04:37:25.411Z,38.57
2018-11-21T04:39:53.870Z,37.93
2018-11-21T04:42:22.320Z,40.10
2018-11-21T04:44:50.751Z,39.47
2018-11-21T04:47:19.171Z,41.40
2018-11-21T04:49:47.687Z,41.63
2018-11-21T04:52:16.092Z,39.97
2018-11-21T04:54:44.511Z,40.20
2018-11-21T04:57:12.926Z,43.37
2018-11-21T04:59:41.330Z,36.37
2018-11-21T05:02:09.761Z,36.27
2018-11-21T05:04:38.167Z,37.07
2018-11-21T05:07:06.597Z,35.80
2018-11-21T05:09:35.003Z,36.87
2018-11-21T05:12:03.437Z,38.10
2018-11-21T05:14:31.874Z,39.37
2018-11-21T05:17:00.305Z,35.47
2018-11-21T05:19:28.703Z,39.20
2018-11-21T05:21:57.141Z,38.70
2018-11-21T05:24:25.548Z,37.17
2018-11-21T05:26:53.972Z,38.43
2018-11-21T05:29:22.381Z,36.93
2018-11-21T05:31:50.837Z,37.97
2018-11-21T05:34:19.263Z,36.77
2018-11-21T05:36:47.698Z,39.47
2018-11-21T05:39:16.105Z,37.77
2018-11-21T05:41:44.505Z,38.83
2018-11-21T05:44:12.939Z,38.03
2018-11-21T05:46:41.345Z,36.03
2018-11-21T05:49:09.832Z,40.23
2018-11-21T05:51:38.231Z,38.47
2018-11-21T05:54:06.677Z,38.63
2018-11-21T05:56:35.085Z,43.30
2018-11-21T05:59:03.522Z,36.97
2018-11-21T06:01:31.920Z,40.77
2018-11-21T06:04:00.349Z,37.37
2018-11-21T06:06:28.798Z,37.57
2018-11-21T06:08:57.608Z,40.50
2018-11-21T06:11:26.001Z,39.37
2018-11-21T06:13:54.424Z,40.27
2018-11-21T06:16:22.842Z,45.30
2018-11-21T06:18:51.278Z,38.97
2018-11-21T06:21:19.690Z,39.10
2018-11-21T06:23:48.134Z,39.67
2018-11-21T06:26:16.541Z,41.13
2018-11-21T06:28:44.958Z,39.47
2018-11-21T06:31:13.403Z,40.07
2018-11-21T06:33:41.864Z,36.67
2018-11-21T06:36:10.281Z,42.07
2018-11-21T06:38:38.794Z,39.17
2018-11-21T06:41:07.252Z,42.73
2018-11-21T06:43:35.688Z,39.77
2018-11-21T06:46:04.123Z,42.03
2018-11-21T06:48:32.544Z,41.50
2018-11-21T06:51:00.977Z,41.50
2018-11-21T06:53:29.446Z,42.10
2018-11-21T06:55:57.930Z,38.97
2018-11-21T06:58:26.420Z,37.90
2018-11-21T07:00:54.866Z,40.20
2018-11-21T07:03:23.278Z,44.27
2018-11-21T07:05:51.716Z,40.63
2018-11-21T07:08:20.140Z,40.50
2018-11-21T07:10:48.570Z,38.93
2018-11-21T07:13:17.008Z,41.30
2018-11-21T07:15:45.430Z,43.03
2018-11-21T07:18:13.962Z,38.53
2018-11-21T07:20:42.392Z,40.13
2018-11-21T07:23:10.819Z,40.93
2018-11-21T07:25:39.279Z,41.50
2018-11-21T07:28:13.011Z,42.80
2018-11-21T07:30:36.231Z,41.73
2018-11-21T07:33:04.677Z,43.57
2018-11-21T07:35:33.106Z,35.10
2018-11-21T07:38:01.700Z,38.83
2018-11-21T07:40:30.153Z,40.53
2018-11-21T07:42:58.604Z,39.90
2018-11-21T07:45:27.055Z,42.03
2018-11-21T07:47:55.644Z,40.37
2018-11-21T07:50:24.095Z,34.80
2018-11-21T07:52:52.554Z,38.63
2018-11-21T07:55:20.983Z,36.80
2018-11-21T07:57:51.120Z,39.17
2018-11-21T08:01:26.718Z,39.13
2018-11-21T08:03:58.738Z,37.33
2018-11-21T08:07:01.684Z,37.27
2018-11-21T08:09:53.796Z,38.70
2018-11-21T08:12:41.392Z,38.47
2018-11-21T08:15:31.850Z,39.77
2018-11-21T08:18:34.247Z,36.23
2018-11-21T08:21:27.658Z,39.70
2018-11-21T08:24:05.175Z,35.30
2018-11-21T08:26:51.673Z,44.80
2018-11-21T08:29:20.150Z,36.87
2018-11-21T08:31:48.631Z,35.47
2018-11-21T08:34:18.582Z,36.73
2018-11-21T08:36:47.035Z,35.47
2018-11-21T08:39:15.482Z,33.80
2018-11-21T08:41:43.943Z,37.07
2018-11-21T08:44:12.394Z,36.93
2018-11-21T08:46:40.861Z,32.97
2018-11-21T08:49:09.282Z,34.37
2018-11-21T08:51:38.118Z,35.60
2018-11-21T08:54:06.548Z,34.53
2018-11-21T08:56:35.010Z,31.17
2018-11-21T08:59:03.436Z,36.07
2018-11-21T09:01:31.893Z,35.67
2018-11-21T09:04:00.327Z,36.40
2018-11-21T09:06:28.755Z,33.13
2018-11-21T09:08:57.234Z,33.23
2018-11-21T09:11:25.662Z,35.53
2018-11-21T09:13:54.140Z,33.47
2018-11-21T09:16:22.575Z,37.10
2018-11-21T09:18:51.025Z,33.60
2018-11-21T09:21:19.462Z,34.43
2018-11-21T09:23:47.930Z,36.47
2018-11-21T09:26:16.419Z,33.70
2018-11-21T09:28:44.881Z,35.03
2018-11-21T09:31:13.335Z,33.83
2018-11-21T09:33:41.816Z,33.50
2018-11-21T09:36:10.275Z,35.10
2018-11-21T09:38:39.971Z,33.47
2018-11-21T09:41:08.417Z,33.53
2018-11-21T09:43:36.914Z,33.47
2018-11-21T09:46:05.461Z,31.67
2018-11-21T09:48:33.954Z,34.10
2018-11-21T09:51:02.396Z,36.37
2018-11-21T09:53:30.865Z,32.47
2018-11-21T09:55:59.595Z,31.20
2018-11-21T09:58:28.068Z,34.30
2018-11-21T10:01:32.702Z,34.37
2018-11-21T10:04:02.213Z,35.27
2018-11-21T10:06:33.131Z,35.03
2018-11-21T10:09:04.285Z,33.43
2018-11-21T10:11:33.694Z,31.43
2018-11-21T10:14:02.131Z,30.97
2018-11-21T10:16:30.622Z,33.63
2018-11-21T10:18:59.614Z,30.47
2018-11-21T10:21:29.589Z,32.33
2018-11-21T10:23:58.039Z,31.67
2018-11-21T10:26:26.506Z,35.07
2018-11-21T10:28:56.491Z,32.30
2018-11-21T10:31:24.951Z,34.87
2018-11-21T10:33:53.377Z,31.87
2018-11-21T10:36:22.322Z,33.23
2018-11-21T10:38:50.851Z,32.40
2018-11-21T10:41:19.343Z,31.97
2018-11-21T10:43:47.776Z,33.93
2018-11-21T10:46:16.233Z,30.50
2018-11-21T10:48:44.668Z,32.87
2018-11-21T10:51:14.452Z,30.43
2018-11-21T10:53:41.600Z,30.63
2018-11-21T10:56:10.060Z,34.30
2018-11-21T10:58:38.513Z,32.60
2018-11-21T11:01:24.677Z,34.20
2018-11-21T11:04:01.101Z,32.43
2018-11-21T11:06:48.178Z,30.27
2018-11-21T11:09:34.345Z,33.30
2018-11-21T11:12:20.298Z,30.90
2018-11-21T11:15:06.562Z,30.37
2018-11-21T11:18:06.221Z,30.00
2018-11-21T11:20:50.909Z,27.23
2018-11-21T11:23:36.825Z,26.93
2018-11-21T11:26:30.602Z,30.20
2018-11-21T11:29:27.205Z,27.20
2018-11-21T11:32:14.781Z,26.67
2018-11-21T11:35:00.777Z,24.57
2018-11-21T11:38:03.522Z,26.70
2018-11-21T11:40:49.603Z,26.33
2018-11-21T11:43:37.470Z,27.73
2018-11-21T11:46:18.217Z,34.27
2018-11-21T11:49:11.749Z,31.00
2018-11-21T11:52:01.850Z,26.30
2018-11-21T11:54:49.447Z,25.47
2018-11-21T11:57:37.025Z,26.73
2018-11-21T12:00:26.765Z,24.00
2018-11-21T12:03:13.488Z,24.17
2018-11-21T12:06:03.773Z,23.03
2018-11-21T12:08:49.982Z,25.13
2018-11-21T12:11:41.384Z,27.60
2018-11-21T12:14:19.053Z,23.93
2018-11-21T12:17:04.916Z,24.17
2018-11-21T12:19:55.177Z,25.07
2018-11-21T12:22:41.126Z,23.20
2018-11-21T12:25:34.745Z,26.20
2018-11-21T12:28:22.321Z,24.70
2018-11-21T12:31:02.763Z,25.83
2018-11-21T12:33:53.101Z,27.83
2018-11-21T12:36:46.281Z,26.30
2018-11-21T12:39:32.481Z,24.40
2018-11-21T12:42:35.056Z,21.53
2018-11-21T12:45:27.659Z,24.33
2018-11-21T12:48:21.142Z,22.93
2018-11-21T12:51:03.417Z,23.70
2018-11-21T12:53:49.340Z,24.97
2018-11-21T12:56:36.940Z,22.57
2018-11-21T12:59:24.777Z,21.67
2018-11-21T13:02:05.746Z,24.00
